Time;durP1;ratioP1;P1;durP2;ratioP2;P2;SDS_P1;SDS_P2;PMS_P1;PMS_P2;Temp;Humidity;BMP_temperature;BMP_pressure;BME280_temperature;BME280_humidity;BME280_pressure;Samples;Min_cycle;Max_cycle;Signal;HPM_P1;HPM_P2
2023/07/07 00:02:15;;;;;;;5.78;3.20;;;;;;;18.93;56.30;102003.56;5016061;28;20100;-44
2023/07/07 00:04:40;;;;;;;5.72;3.15;;;;;;;18.95;56.06;101995.63;5016486;28;20123;-44
2023/07/07 00:07:05;;;;;;;5.65;3.17;;;;;;;18.93;55.95;102000.91;5015534;28;20084;-47
2023/07/07 00:09:31;;;;;;;4.95;2.90;;;;;;;18.97;55.63;102002.66;5014080;28;20042;-43
2023/07/07 00:11:57;;;;;;;5.25;2.90;;;;;;;18.94;55.56;101999.16;5013257;28;20448;-44
2023/07/07 00:14:23;;;;;;;5.07;2.80;;;;;;;18.96;55.28;102003.56;5013428;28;20128;-44
2023/07/07 00:16:48;;;;;;;4.78;3.00;;;;;;;18.96;54.84;102002.69;5012881;28;20117;-46
2023/07/07 00:19:14;;;;;;;5.55;2.92;;;;;;;19.01;54.41;101999.16;5012806;28;20117;-44
2023/07/07 00:21:40;;;;;;;5.47;2.80;;;;;;;18.97;54.30;101997.38;5011510;28;20476;-49
2023/07/07 00:24:07;;;;;;;4.88;2.97;;;;;;;18.99;54.13;102000.91;5011947;28;20517;-43
2023/07/07 00:26:34;;;;;;;6.57;2.80;;;;;;;19.00;53.95;101997.38;5011529;28;20045;-46
2023/07/07 00:28:59;;;;;;;5.88;2.90;;;;;;;18.97;54.18;102001.78;5011389;28;20037;-44
2023/07/07 00:31:25;;;;;;;4.85;3.10;;;;;;;18.95;54.59;101996.53;5012748;28;20030;-45
2023/07/07 00:33:51;;;;;;;4.47;3.03;;;;;;;18.93;54.44;101994.75;5012503;28;20040;-48
2023/07/07 00:36:17;;;;;;;4.93;3.20;;;;;;;18.86;54.56;101990.38;5013076;28;20063;-44
2023/07/07 00:38:42;;;;;;;7.13;3.20;;;;;;;18.85;54.63;101993.88;5011769;28;20052;-45
2023/07/07 00:41:08;;;;;;;5.57;3.00;;;;;;;18.82;54.61;101991.28;5011429;28;20535;-50
2023/07/07 00:43:35;;;;;;;7.00;3.03;;;;;;;18.81;54.69;101989.50;5011963;28;20432;-47
2023/07/07 00:46:00;;;;;;;6.05;2.95;;;;;;;18.82;54.54;101992.16;5013279;28;20037;-42
2023/07/07 00:48:30;;;;;;;5.00;3.00;;;;;;;18.84;54.47;101985.13;5012168;28;20034;-46
2023/07/07 00:51:06;;;;;;;6.07;2.90;;;;;;;18.81;54.41;101987.75;5012247;28;20033;-45
2023/07/07 00:53:32;;;;;;;5.85;3.03;;;;;;;18.82;54.40;101980.69;5012195;28;20038;-46
2023/07/07 00:56:09;;;;;;;4.45;2.95;;;;;;;18.81;54.50;101979.81;5013214;28;20066;-45
2023/07/07 00:58:36;;;;;;;4.57;2.88;;;;;;;18.79;54.47;101978.06;5011314;28;20428;-45
2023/07/07 01:01:06;;;;;;;5.00;2.83;;;;;;;18.80;54.46;101982.47;5012952;28;20026;-44
2023/07/07 01:03:34;;;;;;;6.00;3.10;;;;;;;18.77;54.72;101986.00;5012622;28;20034;-43
2023/07/07 01:06:02;;;;;;;4.60;3.15;;;;;;;18.77;54.98;101985.13;5011982;28;20033;-48
2023/07/07 01:08:28;;;;;;;7.75;3.35;;;;;;;18.67;55.20;101975.44;5010948;28;20062;-42
2023/07/07 01:10:53;;;;;;;5.13;3.30;;;;;;;18.77;55.04;101974.56;5012840;28;20029;-46
2023/07/07 01:13:19;;;;;;;6.50;3.25;;;;;;;18.76;55.31;101976.31;5013472;28;20037;-47
2023/07/07 01:15:56;;;;;;;6.25;3.65;;;;;;;18.75;55.54;101977.19;5012155;28;20080;-43
2023/07/07 01:18:46;;;;;;;4.60;3.25;;;;;;;18.75;55.36;101976.31;5013675;28;20026;-44
2023/07/07 01:21:30;;;;;;;6.30;3.63;;;;;;;18.76;55.55;101970.16;5014617;28;20038;-43
2023/07/07 01:24:35;;;;;;;8.15;3.47;;;;;;;18.74;55.86;101971.91;5014747;28;20156;-42
2023/07/07 01:27:33;;;;;;;6.85;3.55;;;;;;;18.70;56.16;101971.06;5014417;28;20026;-44
2023/07/07 01:30:17;;;;;;;5.90;3.53;;;;;;;18.68;56.15;101969.28;5013909;28;20067;-42
2023/07/07 01:32:43;;;;;;;8.75;3.80;;;;;;;18.64;56.24;101977.22;5010344;28;20042;-44
2023/07/07 01:35:15;;;;;;;5.88;4.15;;;;;;;18.61;56.41;101976.34;5012818;28;20030;-43
2023/07/07 01:37:49;;;;;;;6.32;3.42;;;;;;;18.57;56.62;101978.13;5011082;28;20041;-47
2023/07/07 01:40:14;;;;;;;6.80;3.60;;;;;;;18.59;56.48;101979.00;5010544;28;20169;-45
2023/07/07 01:42:47;;;;;;;6.55;3.75;;;;;;;18.50;57.26;101975.44;5011569;28;20133;-44
2023/07/07 01:45:15;;;;;;;8.50;4.35;;;;;;;18.54;57.10;101980.72;5014469;28;20098;-47
2023/07/07 01:47:50;;;;;;;5.57;3.60;;;;;;;18.48;57.28;101966.69;5015694;28;20045;-44
2023/07/07 01:50:23;;;;;;;7.03;4.00;;;;;;;18.49;57.60;101973.69;5014809;28;20030;-42
2023/07/07 01:52:51;;;;;;;6.50;4.40;;;;;;;18.52;57.67;101971.94;5013714;28;20088;-44
2023/07/07 01:55:26;;;;;;;6.55;4.07;;;;;;;18.50;57.47;101967.53;5014275;28;20030;-43
2023/07/07 01:57:58;;;;;;;7.47;4.30;;;;;;;18.50;57.61;101965.78;5013829;28;20500;-43
2023/07/07 02:00:26;;;;;;;7.80;4.55;;;;;;;18.51;57.87;101971.94;5015173;28;20041;-42
2023/07/07 02:02:52;;;;;;;8.93;4.60;;;;;;;18.41;58.56;101972.84;5014463;28;20041;-50
2023/07/07 02:05:17;;;;;;;9.75;5.32;;;;;;;18.51;58.70;101970.19;5012530;28;20042;-47
2023/07/07 02:07:43;;;;;;;8.65;5.43;;;;;;;18.57;58.72;101966.69;5011880;28;20474;-46
2023/07/07 02:10:09;;;;;;;9.50;5.75;;;;;;;18.45;59.14;101967.53;5010584;28;20113;-44
2023/07/07 02:12:35;;;;;;;11.18;6.22;;;;;;;18.50;58.91;101959.59;5011592;28;20053;-44
2023/07/07 02:15:00;;;;;;;9.75;5.97;;;;;;;18.59;58.59;101968.44;5013065;28;20429;-44
2023/07/07 02:17:28;;;;;;;12.27;6.75;;;;;;;18.70;58.37;101963.13;5014878;28;20088;-46
2023/07/07 02:19:54;;;;;;;13.20;6.43;;;;;;;18.68;58.44;101961.34;5012298;28;20038;-47
2023/07/07 02:22:20;;;;;;;12.20;6.70;;;;;;;18.84;57.89;101956.06;5011547;28;20045;-44
2023/07/07 02:24:45;;;;;;;13.02;7.03;;;;;;;18.70;58.14;101959.59;5010137;28;20104;-45
2023/07/07 02:27:10;;;;;;;12.45;7.20;;;;;;;18.48;59.21;101967.53;5012194;28;20088;-47
2023/07/07 02:29:39;;;;;;;12.27;6.80;;;;;;;18.82;58.04;101965.72;5010359;28;20460;-44
2023/07/07 02:32:05;;;;;;;10.93;7.07;;;;;;;18.41;59.29;101963.16;5011231;28;20088;-47
2023/07/07 02:34:31;;;;;;;14.23;7.22;;;;;;;18.39;59.49;101964.91;5010494;28;20041;-45
2023/07/07 02:36:56;;;;;;;11.20;7.35;;;;;;;18.52;59.10;101964.03;5011255;28;20049;-42
2023/07/07 02:39:21;;;;;;;12.40;7.43;;;;;;;18.61;58.63;101961.38;5008734;28;20057;-40
2023/07/07 02:41:47;;;;;;;12.35;7.70;;;;;;;18.42;59.55;101958.75;5008883;28;20045;-44
2023/07/07 02:44:13;;;;;;;13.18;7.57;;;;;;;18.44;59.44;101962.25;5009273;28;20660;-47
2023/07/07 02:46:38;;;;;;;12.75;7.68;;;;;;;18.42;59.38;101964.91;5010430;28;20096;-44
2023/07/07 02:49:04;;;;;;;12.75;8.05;;;;;;;18.48;59.21;101971.97;5010048;28;20465;-47
2023/07/07 02:51:29;;;;;;;11.90;7.95;;;;;;;18.62;58.70;101967.53;5009726;28;20400;-46
2023/07/07 02:53:56;;;;;;;13.02;7.97;;;;;;;18.61;58.75;101971.06;5008841;28;20036;-45
2023/07/07 02:56:21;;;;;;;13.70;8.20;;;;;;;18.56;59.12;101967.56;5009366;28;20041;-46
2023/07/07 02:58:46;;;;;;;11.60;7.97;;;;;;;18.68;58.83;101970.16;5009289;28;20041;-46
2023/07/07 03:01:15;;;;;;;13.13;8.15;;;;;;;18.67;59.00;101970.16;5010195;28;20069;-43
2023/07/07 03:03:43;;;;;;;13.90;8.07;;;;;;;18.57;59.30;101972.84;5011455;28;20069;-45
2023/07/07 03:06:11;;;;;;;14.50;8.30;;;;;;;18.43;59.62;101966.66;5011141;28;20032;-45
2023/07/07 03:08:36;;;;;;;11.23;8.20;;;;;;;18.47;59.72;101976.34;5010027;28;20034;-47
2023/07/07 03:11:08;;;;;;;13.00;8.63;;;;;;;18.49;59.62;101976.31;5011178;28;20026;-46
2023/07/07 03:13:34;;;;;;;14.18;8.27;;;;;;;18.61;59.32;101976.34;5010780;28;20045;-43
2023/07/07 03:16:09;;;;;;;13.75;8.75;;;;;;;18.52;59.87;101976.34;5011006;28;20502;-46
2023/07/07 03:18:35;;;;;;;12.20;8.10;;;;;;;18.61;59.51;101981.63;5010351;28;20041;-48
2023/07/07 03:21:00;;;;;;;14.05;9.00;;;;;;;18.60;59.69;101972.81;5010538;28;20141;-43
2023/07/07 03:23:26;;;;;;;12.32;8.32;;;;;;;18.54;59.78;101978.06;5011099;28;20042;-43
2023/07/07 03:25:51;;;;;;;13.65;8.68;;;;;;;18.76;59.33;101970.16;5011001;28;20558;-46
2023/07/07 03:28:16;;;;;;;13.27;8.57;;;;;;;18.68;59.69;101966.63;5010898;28;20645;-44
2023/07/07 03:30:42;;;;;;;13.73;9.00;;;;;;;18.67;59.78;101973.69;5010198;28;20069;-48
2023/07/07 03:33:07;;;;;;;12.55;8.73;;;;;;;18.45;60.38;101975.47;5010908;28;20026;-44
2023/07/07 03:35:32;;;;;;;14.13;8.93;;;;;;;18.55;60.50;101977.22;5009703;28;20089;-46
2023/07/07 03:37:58;;;;;;;13.85;8.30;;;;;;;18.51;60.31;101971.94;5009516;28;20034;-45
2023/07/07 03:40:23;;;;;;;13.20;9.02;;;;;;;18.67;59.90;101978.97;5007747;28;20516;-46
2023/07/07 03:42:48;;;;;;;12.45;8.35;;;;;;;18.87;59.04;101982.44;5009366;28;20092;-43
2023/07/07 03:45:15;;;;;;;13.00;7.78;;;;;;;18.58;59.54;101976.38;5009891;28;20041;-46
2023/07/07 03:47:43;;;;;;;11.68;8.27;;;;;;;18.74;59.21;101978.06;5009545;28;20112;-45
2023/07/07 03:50:09;;;;;;;13.57;8.38;;;;;;;18.62;59.58;101975.47;5010019;28;20125;-43
2023/07/07 03:52:35;;;;;;;12.50;7.78;;;;;;;18.68;59.46;101971.94;5009493;28;20061;-46
2023/07/07 03:55:00;;;;;;;13.23;8.23;;;;;;;18.67;59.56;101971.03;5008557;28;20411;-46
2023/07/07 03:57:25;;;;;;;15.07;8.85;;;;;;;18.57;60.19;101969.31;5009987;28;20042;-47
2023/07/07 03:59:51;;;;;;;12.65;8.48;;;;;;;18.76;59.41;101978.06;5008711;28;20085;-46
2023/07/07 04:02:16;;;;;;;14.38;8.15;;;;;;;18.71;59.07;101975.47;5009649;28;20049;-46
2023/07/07 04:04:42;;;;;;;13.95;7.70;;;;;;;18.80;58.84;101980.69;5009860;28;20044;-43
2023/07/07 04:07:07;;;;;;;12.82;7.82;;;;;;;18.99;58.06;101979.75;5010285;28;20042;-48
2023/07/07 04:09:32;;;;;;;11.07;7.40;;;;;;;18.92;58.52;101982.41;5010559;28;20053;-43
2023/07/07 04:11:58;;;;;;;12.57;7.43;;;;;;;19.15;57.71;101979.72;5011142;28;20042;-46
2023/07/07 04:14:27;;;;;;;12.48;7.90;;;;;;;19.09;57.59;101980.59;5012191;28;20140;-44
2023/07/07 04:16:53;;;;;;;11.20;7.80;;;;;;;18.77;58.35;101982.47;5010238;28;20037;-44
2023/07/07 04:19:19;;;;;;;10.73;7.18;;;;;;;18.94;58.02;101983.31;5011395;28;20404;-46
2023/07/07 04:21:45;;;;;;;11.23;7.20;;;;;;;19.22;57.06;101989.34;5011103;28;20127;-44
2023/07/07 04:24:10;;;;;;;10.50;6.65;;;;;;;19.07;57.50;101984.13;5010551;28;20100;-45
2023/07/07 04:26:38;;;;;;;15.82;7.80;;;;;;;19.06;57.40;101993.84;5010281;28;20061;-47
2023/07/07 04:29:03;;;;;;;11.18;6.93;;;;;;;19.11;57.10;101980.59;5009786;28;20030;-44
2023/07/07 04:31:30;;;;;;;10.77;6.85;;;;;;;19.07;57.15;101981.50;5009828;28;20030;-47
2023/07/07 04:33:56;;;;;;;11.98;7.38;;;;;;;19.23;56.67;101986.69;5011158;28;20158;-47
2023/07/07 04:36:22;;;;;;;11.20;7.63;;;;;;;19.23;56.71;101985.81;5013671;28;20136;-45
2023/07/07 04:38:48;;;;;;;9.65;6.63;;;;;;;19.48;55.90;101990.13;5012381;28;20042;-44
2023/07/07 04:41:18;;;;;;;10.68;6.45;;;;;;;19.64;55.69;101983.84;5011974;28;20118;-45
2023/07/07 04:43:46;;;;;;;10.23;7.03;;;;;;;19.38;56.08;101973.44;5012412;28;20125;-44
2023/07/07 04:46:17;;;;;;;11.07;7.10;;;;;;;19.48;55.98;101976.91;5013300;28;20465;-49
2023/07/07 04:48:42;;;;;;;9.93;6.65;;;;;;;19.41;56.17;101972.50;5012756;28;20129;-47
2023/07/07 04:51:10;;;;;;;13.18;7.03;;;;;;;19.49;55.78;101969.88;5012967;28;20117;-44
2023/07/07 04:53:37;;;;;;;9.95;6.82;;;;;;;19.48;56.21;101976.03;5012942;28;20037;-43
2023/07/07 04:56:10;;;;;;;10.13;6.88;;;;;;;19.64;55.46;101978.56;5013449;28;20034;-43
2023/07/07 04:58:37;;;;;;;12.15;6.90;;;;;;;19.60;55.61;101982.13;5011563;28;20684;-45
2023/07/07 05:01:10;;;;;;;11.00;6.50;;;;;;;19.82;55.17;101985.53;5013111;28;20034;-45
2023/07/07 05:03:36;;;;;;;10.82;6.72;;;;;;;19.99;54.52;101983.63;5013437;28;20055;-42
2023/07/07 05:06:03;;;;;;;10.15;6.40;;;;;;;19.91;54.63;101980.16;5015692;28;20171;-48
2023/07/07 05:08:34;;;;;;;10.38;6.35;;;;;;;20.19;53.97;101978.16;5014878;28;20081;-42
2023/07/07 05:11:00;;;;;;;9.82;6.40;;;;;;;20.29;53.75;101981.63;5015197;28;20045;-45
2023/07/07 05:13:26;;;;;;;9.60;6.30;;;;;;;20.63;52.91;101986.59;5013434;28;20053;-42
2023/07/07 05:16:20;;;;;;;9.90;6.00;;;;;;;21.01;51.78;101996.78;5013737;28;20200;-44
2023/07/07 05:18:45;;;;;;;9.30;6.03;;;;;;;22.14;48.36;101985.47;5009366;28;20141;-43
2023/07/07 05:21:12;;;;;;;9.27;5.20;;;;;;;23.60;44.97;101984.41;5012489;28;20488;-49
2023/07/07 05:23:38;;;;;;;7.97;5.00;;;;;;;25.06;41.08;101994.88;5011993;28;20072;-46
2023/07/07 05:26:04;;;;;;;7.25;4.85;;;;;;;26.06;38.18;101983.72;5012182;28;20647;-48
2023/07/07 05:28:30;;;;;;;6.68;4.20;;;;;;;27.14;36.33;101987.94;5009959;28;20038;-47
2023/07/07 05:30:55;;;;;;;9.77;4.47;;;;;;;27.57;34.95;101992.53;5012725;28;20034;-47
2023/07/07 05:33:21;;;;;;;6.78;3.97;;;;;;;28.42;33.91;101991.69;5012509;28;20096;-44
2023/07/07 05:35:56;;;;;;;6.68;4.32;;;;;;;28.78;32.33;101996.41;5012145;28;20045;-45
2023/07/07 05:38:24;;;;;;;7.97;4.00;;;;;;;29.24;31.42;101987.13;5011645;28;20038;-49
2023/07/07 05:40:50;;;;;;;8.57;4.10;;;;;;;29.68;31.70;101991.28;5009360;28;20030;-45
2023/07/07 05:43:17;;;;;;;8.07;3.90;;;;;;;30.10;30.49;101990.13;5011497;28;20129;-43
2023/07/07 05:45:43;;;;;;;5.63;3.78;;;;;;;30.22;29.92;101997.56;5010020;28;20046;-46
2023/07/07 05:48:09;;;;;;;6.03;3.60;;;;;;;30.93;28.81;102001.88;5010852;28;20030;-47
2023/07/07 05:50:35;;;;;;;7.82;3.40;;;;;;;31.19;28.56;101997.81;5010711;28;20037;-48
2023/07/07 05:53:01;;;;;;;7.40;3.35;;;;;;;31.15;28.14;102000.78;5011549;28;20492;-49
2023/07/07 05:55:32;;;;;;;8.38;3.35;;;;;;;31.23;27.93;102003.91;5011284;28;20045;-47
2023/07/07 05:57:58;;;;;;;4.97;3.30;;;;;;;30.99;28.50;102001.56;5010671;28;20070;-47
2023/07/07 06:00:27;;;;;;;5.63;3.30;;;;;;;31.85;27.59;101997.69;5011071;28;20132;-46
2023/07/07 06:02:52;;;;;;;6.05;3.25;;;;;;;31.42;28.23;102001.91;5010763;28;20038;-46
2023/07/07 06:05:18;;;;;;;6.28;3.20;;;;;;;31.96;27.22;101997.91;5011238;28;20083;-43
2023/07/07 06:07:43;;;;;;;5.10;3.10;;;;;;;32.46;26.48;102000.34;5010466;28;20038;-49
2023/07/07 06:10:12;;;;;;;5.32;3.10;;;;;;;32.43;26.48;101997.84;5010808;28;20061;-46
2023/07/07 06:12:38;;;;;;;5.88;3.03;;;;;;;32.31;27.03;102003.09;5010384;28;20511;-47
2023/07/07 06:15:05;;;;;;;6.35;3.00;;;;;;;33.11;25.32;101994.56;5011035;28;20397;-45
2023/07/07 06:17:30;;;;;;;6.68;2.90;;;;;;;32.96;25.73;101993.69;5010757;28;20034;-47
2023/07/07 06:19:56;;;;;;;4.45;2.85;;;;;;;33.02;25.74;102002.28;5010542;28;20044;-46
2023/07/07 06:22:21;;;;;;;6.25;2.92;;;;;;;33.60;24.81;102005.81;5010560;28;20037;-45
2023/07/07 06:24:47;;;;;;;5.68;3.00;;;;;;;32.88;25.97;102004.09;5010472;28;20042;-44
2023/07/07 06:27:12;;;;;;;6.45;2.70;;;;;;;33.50;24.93;101997.44;5010748;28;20492;-47
2023/07/07 06:29:38;;;;;;;5.60;2.83;;;;;;;33.87;24.35;102005.84;5009887;28;20038;-55
2023/07/07 06:32:03;;;;;;;5.18;2.80;;;;;;;33.45;24.97;102009.50;5010765;28;20607;-46
2023/07/07 06:34:29;;;;;;;3.85;2.60;;;;;;;33.69;24.94;102003.38;5010416;28;20535;-48
2023/07/07 06:36:54;;;;;;;4.90;2.70;;;;;;;33.89;24.41;101998.50;5011082;28;20042;-51
2023/07/07 06:39:19;;;;;;;6.50;2.53;;;;;;;33.14;25.66;102007.88;5008238;28;20041;-44
2023/07/07 06:41:44;;;;;;;5.95;2.47;;;;;;;34.07;23.72;102011.69;5009778;28;20062;-49
2023/07/07 06:44:10;;;;;;;4.43;2.33;;;;;;;34.24;24.36;101999.72;5010480;28;20060;-48
2023/07/07 06:46:35;;;;;;;4.32;2.50;;;;;;;34.51;24.07;102014.09;5031802;23;20514;-79
2023/07/07 06:49:02;;;;;;;4.03;2.28;;;;;;;34.87;23.99;102009.81;5041931;28;20382;-80
2023/07/07 06:54:50;;;;;;;5.05;2.22;;;;;;;35.15;22.62;102012.25;5042102;28;20126;-79
2023/07/07 07:00:37;;;;;;;4.38;2.28;;;;;;;34.17;24.60;102015.47;5048498;23;20172;-42
2023/07/07 07:03:03;;;;;;;5.20;2.20;;;;;;;35.14;22.80;102015.94;5009627;28;20123;-45
2023/07/07 07:05:28;;;;;;;3.92;2.40;;;;;;;35.33;22.83;102018.22;5009748;28;20038;-41
2023/07/07 07:07:54;;;;;;;3.95;2.25;;;;;;;34.72;23.30;102017.16;5008538;28;20034;-43
2023/07/07 07:10:19;;;;;;;4.45;2.22;;;;;;;35.37;22.36;102020.63;5010152;28;20033;-43
2023/07/07 07:12:44;;;;;;;4.18;2.15;;;;;;;33.47;24.77;102029.22;5010002;28;20030;-43
2023/07/07 07:15:10;;;;;;;5.28;2.30;;;;;;;33.68;25.43;102019.69;5010124;28;20519;-43
2023/07/07 07:17:36;;;;;;;5.60;2.47;;;;;;;35.46;22.72;102023.63;5009482;28;20260;-40
2023/07/07 07:20:02;;;;;;;3.95;2.30;;;;;;;34.97;23.17;102022.59;5009766;28;20655;-44
2023/07/07 07:22:27;;;;;;;4.47;2.25;;;;;;;35.67;22.06;102022.06;5009919;28;20527;-45
2023/07/07 07:24:53;;;;;;;5.57;2.47;;;;;;;33.96;23.64;102022.34;5009694;28;20038;-42
2023/07/07 07:27:18;;;;;;;3.88;2.30;;;;;;;33.34;25.32;102029.13;5009766;28;20038;-43
2023/07/07 07:29:44;;;;;;;6.13;2.33;;;;;;;34.13;24.79;102030.22;5007742;28;20038;-46
2023/07/07 07:32:10;;;;;;;5.60;2.10;;;;;;;35.50;23.29;102023.28;5010071;28;20134;-43
2023/07/07 07:34:35;;;;;;;4.15;2.03;;;;;;;36.67;21.89;102027.97;5012399;28;20059;-42
2023/07/07 07:37:03;;;;;;;3.90;2.25;;;;;;;36.42;22.30;102029.00;5013858;28;20514;-45
2023/07/07 07:39:29;;;;;;;3.25;1.98;;;;;;;35.97;22.47;102025.22;5010982;28;20053;-42
2023/07/07 07:41:55;;;;;;;4.93;2.13;;;;;;;36.32;21.34;102044.28;5009990;28;20057;-41
2023/07/07 07:44:22;;;;;;;5.38;2.10;;;;;;;35.70;22.05;102041.72;5009626;28;20041;-42
2023/07/07 07:46:50;;;;;;;3.65;2.17;;;;;;;36.47;21.41;102028.66;5008854;28;20041;-44
2023/07/07 07:49:16;;;;;;;4.00;2.20;;;;;;;36.98;20.46;102038.16;5009208;28;20412;-43
2023/07/07 07:51:42;;;;;;;3.80;2.10;;;;;;;37.12;20.32;102039.81;5008886;28;20022;-42
2023/07/07 07:54:10;;;;;;;3.17;1.92;;;;;;;36.70;21.07;102029.59;5009598;28;20072;-40
2023/07/07 07:56:36;;;;;;;6.72;2.22;;;;;;;36.60;20.48;102040.28;5009187;28;20041;-44
2023/07/07 07:59:02;;;;;;;3.47;2.25;;;;;;;35.86;22.12;102038.72;5008676;28;20508;-42
2023/07/07 08:01:27;;;;;;;4.57;2.20;;;;;;;35.83;22.60;102038.94;5009133;28;20037;-53
2023/07/07 08:03:54;;;;;;;5.80;2.00;;;;;;;36.38;20.91;102030.22;5009059;28;20404;-44
2023/07/07 08:06:20;;;;;;;4.22;2.03;;;;;;;36.90;20.92;102037.06;5009256;28;20042;-44
2023/07/07 08:08:45;;;;;;;4.38;2.13;;;;;;;36.90;20.89;102035.19;5009557;28;20045;-44
2023/07/07 08:11:17;;;;;;;4.20;2.20;;;;;;;36.92;20.52;102038.66;5013112;28;20057;-46
2023/07/07 08:13:42;;;;;;;3.88;2.17;;;;;;;36.92;20.44;102041.38;5011197;28;20385;-43
2023/07/07 08:16:12;;;;;;;4.28;2.00;;;;;;;36.39;21.02;102040.13;5012927;28;20034;-38
2023/07/07 08:18:39;;;;;;;5.18;2.08;;;;;;;36.85;19.96;102045.56;5012381;28;20505;-42
2023/07/07 08:21:04;;;;;;;5.40;2.13;;;;;;;36.66;18.89;102042.56;5013005;28;20064;-45
2023/07/07 08:23:30;;;;;;;4.10;1.98;;;;;;;36.73;20.86;102049.25;5012545;28;20082;-42
2023/07/07 08:25:55;;;;;;;3.47;2.10;;;;;;;37.03;19.88;102050.50;5012793;28;20152;-45
2023/07/07 08:28:21;;;;;;;4.13;2.35;;;;;;;36.58;19.67;102050.41;5012210;28;20049;-41
2023/07/07 08:30:46;;;;;;;3.80;2.00;;;;;;;36.33;21.26;102048.72;5012235;28;20042;-44
2023/07/07 08:33:12;;;;;;;6.13;2.40;;;;;;;35.67;22.03;102043.75;5012687;28;20034;-47
2023/07/07 08:35:38;;;;;;;3.80;1.85;;;;;;;36.02;21.35;102042.03;5012269;28;20069;-43
2023/07/07 08:38:04;;;;;;;5.82;2.13;;;;;;;36.63;20.32;102052.78;5012348;28;20069;-46
2023/07/07 08:40:42;;;;;;;4.53;2.13;;;;;;;36.01;21.07;102044.84;5012281;28;20493;-41
2023/07/07 08:43:10;;;;;;;5.90;2.38;;;;;;;34.95;22.12;102050.75;5012633;28;20053;-40
2023/07/07 08:45:40;;;;;;;3.78;2.20;;;;;;;33.19;23.38;102041.78;5012391;28;20034;-41
2023/07/07 08:48:40;;;;;;;4.38;2.35;;;;;;;32.44;26.01;102048.19;5012314;28;20030;-40
2023/07/07 08:51:14;;;;;;;5.78;2.53;;;;;;;31.38;26.46;102057.81;5012554;28;20509;-41
2023/07/07 08:54:18;;;;;;;4.78;2.10;;;;;;;31.01;27.43;102050.84;5014091;28;20137;-41
2023/07/07 08:56:53;;;;;;;7.20;2.40;;;;;;;31.06;27.78;102049.75;5013016;28;20472;-41
2023/07/07 08:59:42;;;;;;;4.40;2.38;;;;;;;30.93;28.14;102044.97;5012918;28;20112;-41
2023/07/07 09:02:34;;;;;;;5.35;2.10;;;;;;;30.43;27.31;102044.03;5012747;28;20188;-42
2023/07/07 09:05:13;;;;;;;6.95;2.28;;;;;;;30.59;27.50;102043.19;5012516;28;20034;-42
2023/07/07 09:07:47;;;;;;;4.80;2.50;;;;;;;30.51;27.36;102039.16;5012320;28;20100;-42
2023/07/07 09:10:31;;;;;;;5.60;2.20;;;;;;;30.46;26.34;102036.66;5012686;28;20038;-40
2023/07/07 09:13:17;;;;;;;4.88;2.47;;;;;;;30.10;27.38;102035.84;5013004;28;20049;-45
2023/07/07 09:15:56;;;;;;;3.75;2.15;;;;;;;30.36;27.17;102032.72;5012569;28;20030;-44
2023/07/07 09:18:27;;;;;;;5.90;2.50;;;;;;;30.65;27.35;102039.31;5012408;28;20042;-40
2023/07/07 09:20:56;;;;;;;4.65;2.58;;;;;;;30.55;28.28;102040.75;5012777;28;20033;-43
2023/07/07 09:23:27;;;;;;;4.65;2.30;;;;;;;30.39;27.02;102043.31;5016080;28;20053;-48
2023/07/07 09:26:01;;;;;;;4.35;2.50;;;;;;;30.10;26.11;102031.34;5014721;28;20365;-46
2023/07/07 09:28:32;;;;;;;4.80;2.38;;;;;;;30.56;25.02;102048.72;5012248;28;20042;-41
2023/07/07 09:31:21;;;;;;;3.58;2.15;;;;;;;29.93;24.79;102039.38;5011860;28;20034;-41
2023/07/07 09:33:47;;;;;;;4.22;2.40;;;;;;;30.22;24.83;102038.78;5008762;28;20065;-46
2023/07/07 09:36:19;;;;;;;4.78;2.20;;;;;;;30.07;25.17;102033.31;5012436;28;20520;-42
2023/07/07 09:38:56;;;;;;;4.85;2.55;;;;;;;30.11;25.51;102041.16;5011674;28;20228;-40
2023/07/07 09:41:30;;;;;;;3.95;2.40;;;;;;;30.33;25.64;102035.56;5012001;28;20034;-41
2023/07/07 09:44:26;;;;;;;5.30;2.50;;;;;;;30.26;26.06;102028.72;5012105;28;20041;-41
2023/07/07 09:47:05;;;;;;;6.85;2.35;;;;;;;30.23;24.84;102032.47;5012028;28;20041;-42
2023/07/07 09:49:48;;;;;;;4.00;2.15;;;;;;;30.47;25.40;102033.03;5011119;28;20026;-41
2023/07/07 09:52:27;;;;;;;4.00;2.42;;;;;;;30.18;26.68;102034.53;5011780;28;20026;-42
2023/07/07 09:54:54;;;;;;;6.07;2.50;;;;;;;29.93;26.03;102031.31;5011492;28;20058;-45
2023/07/07 09:57:36;;;;;;;4.82;2.30;;;;;;;30.15;25.56;102033.78;5011788;28;20034;-39
2023/07/07 10:00:03;;;;;;;4.93;2.50;;;;;;;30.58;26.03;102036.06;5010633;28;20366;-38
2023/07/07 10:02:29;;;;;;;3.80;2.60;;;;;;;30.25;25.46;102027.03;5011595;28;20034;-41
2023/07/07 10:04:59;;;;;;;6.63;2.47;;;;;;;29.94;25.15;102032.19;5012636;28;20493;-42
2023/07/07 10:07:28;;;;;;;5.15;2.60;;;;;;;30.16;25.53;102031.03;5013128;28;20034;-40
2023/07/07 10:09:58;;;;;;;5.15;2.50;;;;;;;30.08;26.08;102035.03;5011555;28;20033;-40
2023/07/07 10:12:23;;;;;;;3.45;2.40;;;;;;;29.77;25.61;102031.13;5012240;28;20041;-42
2023/07/07 10:14:49;;;;;;;4.68;2.50;;;;;;;29.55;25.71;102030.44;5011985;28;20042;-43
2023/07/07 10:17:29;;;;;;;3.95;2.45;;;;;;;29.96;26.96;102015.00;5012320;28;20397;-42
2023/07/07 10:19:58;;;;;;;4.47;2.33;;;;;;;29.98;26.66;102033.75;5010492;28;20785;-40
2023/07/07 10:22:24;;;;;;;5.82;2.70;;;;;;;30.30;26.85;102032.16;5010843;28;20038;-43
2023/07/07 10:24:49;;;;;;;5.03;3.22;;;;;;;30.66;24.81;102033.00;5010049;28;20036;-39
2023/07/07 10:27:19;;;;;;;4.57;2.30;;;;;;;30.93;25.62;102028.81;5010565;28;20026;-41
2023/07/07 10:29:45;;;;;;;3.95;2.20;;;;;;;31.02;26.14;102030.16;5009760;28;20041;-43
2023/07/07 10:32:22;;;;;;;5.10;2.50;;;;;;;30.70;25.63;102026.47;5009852;28;20400;-42
2023/07/07 10:34:52;;;;;;;5.63;2.40;;;;;;;30.73;25.29;102029.03;5010086;28;21041;-41
2023/07/07 10:37:23;;;;;;;3.30;2.30;;;;;;;30.40;25.73;102036.13;4993028;28;20037;-40
2023/07/07 10:39:54;;;;;;;5.25;2.70;;;;;;;30.64;25.50;102032.19;5009717;28;20038;-41
2023/07/07 10:42:23;;;;;;;4.00;2.63;;;;;;;30.46;26.84;102020.53;5010576;28;20046;-40
2023/07/07 10:44:49;;;;;;;5.40;2.50;;;;;;;30.64;26.01;102026.81;5009984;28;20042;-41
2023/07/07 10:47:19;;;;;;;4.68;2.60;;;;;;;30.89;24.42;102029.06;5010612;28;20665;-46
2023/07/07 10:49:44;;;;;;;4.00;2.40;;;;;;;31.20;25.65;102022.94;5009475;28;20056;-40
2023/07/07 10:52:12;;;;;;;5.38;2.58;;;;;;;30.43;24.73;102020.69;5010839;28;20026;-41
2023/07/07 10:55:09;;;;;;;4.30;2.50;;;;;;;30.20;24.84;102023.66;5010693;28;20049;-41
2023/07/07 10:58:03;;;;;;;3.65;2.30;;;;;;;30.49;24.21;102019.53;5011067;28;20088;-45
2023/07/07 11:00:41;;;;;;;4.82;2.50;;;;;;;30.46;25.40;102027.72;5002207;28;20212;-42
2023/07/07 11:03:35;;;;;;;4.85;2.50;;;;;;;30.29;25.27;102022.34;5010570;28;20049;-40
2023/07/07 11:06:32;;;;;;;5.10;2.40;;;;;;;31.12;25.24;102023.34;5008976;28;20041;-42
2023/07/07 11:09:14;;;;;;;4.07;2.30;;;;;;;31.04;25.07;102017.53;4989028;28;20038;-41
2023/07/07 11:11:53;;;;;;;4.80;2.33;;;;;;;30.79;25.67;102017.06;5009789;28;20527;-41
2023/07/07 11:14:18;;;;;;;4.18;2.30;;;;;;;31.14;25.22;102021.44;5010545;28;20531;-40
2023/07/07 11:17:14;;;;;;;4.67;2.60;;;;;;;31.26;25.49;102011.81;5010193;28;20042;-40
2023/07/07 11:20:02;;;;;;;3.90;2.67;;;;;;;30.78;23.52;102007.25;5009089;28;20280;-42
2023/07/07 11:22:40;;;;;;;6.07;2.83;;;;;;;31.07;25.16;102003.00;5009923;28;20153;-48
2023/07/07 11:25:21;;;;;;;7.30;2.70;;;;;;;30.51;24.56;102005.03;5010141;28;20030;-42
2023/07/07 11:27:56;;;;;;;4.55;2.50;;;;;;;30.62;24.32;102001.78;5009485;28;20042;-40
2023/07/07 11:30:35;;;;;;;4.13;2.50;;;;;;;30.67;24.55;102005.13;5009717;28;20129;-45
2023/07/07 11:33:11;;;;;;;10.00;2.90;;;;;;;30.61;24.37;102003.63;5007101;28;20070;-43
2023/07/07 11:36:10;;;;;;;6.25;2.60;;;;;;;31.17;24.73;102009.66;5008222;28;20042;-40
2023/07/07 11:38:44;;;;;;;5.50;2.60;;;;;;;31.14;22.90;102013.38;5009003;28;20037;-42
2023/07/07 11:41:13;;;;;;;4.97;2.70;;;;;;;31.22;23.61;102015.66;5009797;28;20038;-40
2023/07/07 11:43:41;;;;;;;6.60;2.75;;;;;;;31.39;22.98;102013.75;5012670;28;20405;-42